createdAt,value
2019-03-23T14:43:26.862Z,46.70
2019-03-23T14:45:56.890Z,51.70
2019-03-23T14:48:26.877Z,49.17
2019-03-23T14:50:56.899Z,47.33
2019-03-23T14:53:27.211Z,44.73
2019-03-23T14:55:57.223Z,44.50
2019-03-23T14:58:27.307Z,46.43
2019-03-23T15:00:57.376Z,39.10
2019-03-23T15:03:27.392Z,40.80
2019-03-23T15:05:57.403Z,42.87
2019-03-23T15:08:27.532Z,42.70
2019-03-23T15:10:57.579Z,40.20
2019-03-23T15:13:27.565Z,41.63
2019-03-23T15:15:57.613Z,41.60
2019-03-23T15:18:27.621Z,41.33
2019-03-23T15:20:57.618Z,41.13
2019-03-23T15:23:27.667Z,42.67
2019-03-23T15:25:57.677Z,41.70
2019-03-23T15:28:27.714Z,45.63
2019-03-23T15:30:57.719Z,40.37
2019-03-23T15:33:27.762Z,41.97
2019-03-23T15:35:57.798Z,39.87
2019-03-23T15:38:27.777Z,42.50
2019-03-23T15:40:57.868Z,44.50
2019-03-23T15:43:27.851Z,44.57
2019-03-23T15:45:57.880Z,47.97
2019-03-23T15:48:28.701Z,48.40
2019-03-23T15:50:59.021Z,50.53
2019-03-23T15:53:29.095Z,53.93
2019-03-23T15:55:59.098Z,54.97
2019-03-23T15:58:29.186Z,57.30
2019-03-23T16:00:59.199Z,58.33
2019-03-23T16:03:29.158Z,64.57
2019-03-23T16:05:59.179Z,58.57
2019-03-23T16:08:29.262Z,61.07
2019-03-23T16:10:59.261Z,68.57
2019-03-23T16:13:29.263Z,67.17
2019-03-23T16:15:59.264Z,66.70
2019-03-23T16:18:29.278Z,67.13
2019-03-23T16:20:59.279Z,76.27
2019-03-23T16:23:29.260Z,61.97
2019-03-23T16:25:59.226Z,65.93
2019-03-23T16:28:29.248Z,61.63
2019-03-23T16:30:59.218Z,59.10
2019-03-23T16:33:29.187Z,58.63
2019-03-23T16:35:59.225Z,62.23
2019-03-23T16:38:29.195Z,59.43
2019-03-23T16:40:59.210Z,57.50
2019-03-23T16:43:29.262Z,55.43
2019-03-23T16:45:59.407Z,55.13
2019-03-23T16:48:29.698Z,58.23
2019-03-23T16:50:59.698Z,54.67
2019-03-23T16:53:29.755Z,56.00
2019-03-23T16:55:59.719Z,50.80
2019-03-23T16:58:29.747Z,45.87
2019-03-23T17:00:59.734Z,48.63
2019-03-23T17:03:29.690Z,46.03
2019-03-23T17:05:59.749Z,49.37
2019-03-23T17:08:29.881Z,48.67
2019-03-23T17:10:59.885Z,40.63
2019-03-23T17:13:29.899Z,39.57
2019-03-23T17:15:59.967Z,45.23
2019-03-23T17:18:30.132Z,37.23
2019-03-23T17:21:00.193Z,39.50
2019-03-23T17:23:30.221Z,38.10
2019-03-23T17:26:00.218Z,38.57
2019-03-23T17:28:30.374Z,34.20
2019-03-23T17:31:00.438Z,33.43
2019-03-23T17:33:30.426Z,32.80
2019-03-23T17:36:00.529Z,32.00
2019-03-23T17:38:30.471Z,40.43
2019-03-23T17:41:00.497Z,33.70
2019-03-23T17:43:30.522Z,33.03
2019-03-23T17:46:00.606Z,33.33
2019-03-23T17:48:30.639Z,33.73
2019-03-23T17:51:00.689Z,27.20
2019-03-23T17:53:30.737Z,32.20
2019-03-23T17:56:00.722Z,43.33
2019-03-23T17:58:30.742Z,41.33
2019-03-23T18:01:01.501Z,38.93
2019-03-23T18:03:31.569Z,39.27
2019-03-23T18:06:01.613Z,35.50
2019-03-23T18:08:31.602Z,34.13
2019-03-23T18:11:01.583Z,39.13
2019-03-23T18:13:31.632Z,44.07
2019-03-23T18:16:01.613Z,33.53
2019-03-23T18:18:31.639Z,31.27
2019-03-23T18:21:01.602Z,29.43
2019-03-23T18:23:30.807Z,35.60
2019-03-23T18:26:00.790Z,31.97
2019-03-23T18:28:30.826Z,25.43
2019-03-23T18:31:00.826Z,22.40
2019-03-23T18:33:30.977Z,28.57
2019-03-23T18:36:01.001Z,25.30
2019-03-23T18:38:30.959Z,21.67
2019-03-23T18:41:00.983Z,32.90
2019-03-23T18:43:31.013Z,30.73
2019-03-23T18:46:01.028Z,32.80
2019-03-23T18:48:31.017Z,27.73
2019-03-23T18:51:01.018Z,25.07
2019-03-23T18:53:31.050Z,27.90
2019-03-23T18:56:00.999Z,31.70
2019-03-23T18:58:30.955Z,32.70
2019-03-23T19:01:00.938Z,30.80
2019-03-23T19:03:30.952Z,25.43
2019-03-23T19:06:00.874Z,30.10
2019-03-23T19:08:30.874Z,28.30
2019-03-23T19:11:00.892Z,32.63
2019-03-23T19:13:37.899Z,30.80
2019-03-23T19:16:02.607Z,28.03
2019-03-23T19:18:32.631Z,28.57
2019-03-23T19:21:02.630Z,34.50
2019-03-23T19:23:31.731Z,29.30
2019-03-23T19:26:01.756Z,25.73
2019-03-23T19:28:31.730Z,22.33
2019-03-23T19:31:01.734Z,23.07
2019-03-23T19:33:31.741Z,25.33
2019-03-23T19:36:01.782Z,26.13
2019-03-23T19:38:30.897Z,28.90
2019-03-23T19:41:00.869Z,23.63
2019-03-23T19:43:30.873Z,24.90
2019-03-23T19:46:00.991Z,22.93
2019-03-23T19:48:31.015Z,24.03
2019-03-23T19:51:01.066Z,26.57
2019-03-23T19:53:31.067Z,19.97
2019-03-23T19:56:01.030Z,22.53
2019-03-23T19:58:31.042Z,21.47
2019-03-23T20:01:01.001Z,22.10
2019-03-23T20:03:30.189Z,19.43
2019-03-23T20:06:00.181Z,20.83
2019-03-23T20:08:30.191Z,20.93
2019-03-23T20:11:00.181Z,25.93
2019-03-23T20:13:30.202Z,26.67
2019-03-23T20:16:00.265Z,25.00
2019-03-23T20:18:30.259Z,25.53
2019-03-23T20:21:00.246Z,21.70
2019-03-23T20:23:30.215Z,23.80
2019-03-23T20:26:00.194Z,22.33
2019-03-23T20:28:30.182Z,22.37
2019-03-23T20:31:00.221Z,27.03
2019-03-23T20:33:30.231Z,24.97
2019-03-23T20:36:00.248Z,24.07
2019-03-23T20:38:30.252Z,21.47
2019-03-23T20:41:00.257Z,21.40
2019-03-23T20:43:30.235Z,26.17
2019-03-23T20:46:00.239Z,25.30
2019-03-23T20:48:30.222Z,20.57
2019-03-23T20:51:00.376Z,69.63
2019-03-23T20:53:30.463Z,73.43
2019-03-23T20:56:00.427Z,25.10
2019-03-23T20:58:30.429Z,26.60
2019-03-23T21:01:00.479Z,24.90
2019-03-23T21:03:29.590Z,21.03
2019-03-23T21:05:59.592Z,24.13
2019-03-23T21:08:29.539Z,21.70
2019-03-23T21:10:59.578Z,19.90
2019-03-23T21:13:29.574Z,27.87
2019-03-23T21:15:59.606Z,23.77
2019-03-23T21:18:29.644Z,26.10
2019-03-23T21:20:59.626Z,30.80
2019-03-23T21:23:29.617Z,27.97
2019-03-23T21:25:59.664Z,21.57
2019-03-23T21:28:29.605Z,20.53
2019-03-23T21:30:59.585Z,24.83
2019-03-23T21:33:32.158Z,27.23
2019-03-23T21:36:01.238Z,24.53
2019-03-23T21:38:31.242Z,17.47
2019-03-23T21:41:01.256Z,16.93
2019-03-23T21:43:31.239Z,15.77
2019-03-23T21:46:01.187Z,13.23
2019-03-23T21:48:31.202Z,20.67
2019-03-23T21:51:01.215Z,14.87
2019-03-23T21:53:31.246Z,19.67
2019-03-23T21:56:01.198Z,19.93
2019-03-23T21:58:31.230Z,25.23
2019-03-23T22:01:01.178Z,26.60
2019-03-23T22:03:30.290Z,20.67
2019-03-23T22:06:00.314Z,19.90
2019-03-23T22:08:30.240Z,24.50
2019-03-23T22:11:00.339Z,15.77
2019-03-23T22:13:29.475Z,18.10
2019-03-23T22:15:59.463Z,17.40
2019-03-23T22:18:29.487Z,19.30
2019-03-23T22:20:59.505Z,18.00
2019-03-23T22:23:29.513Z,25.83
2019-03-23T22:25:59.519Z,19.33
2019-03-23T22:28:29.504Z,20.17
2019-03-23T22:30:59.607Z,22.33
2019-03-23T22:33:29.597Z,20.03
2019-03-23T22:35:59.637Z,23.57
2019-03-23T22:38:29.656Z,18.03
2019-03-23T22:40:59.635Z,15.53
2019-03-23T22:43:29.859Z,19.00
2019-03-23T22:45:59.817Z,20.87
2019-03-23T22:48:29.853Z,19.13
2019-03-23T22:50:59.866Z,21.83
2019-03-23T22:53:29.835Z,19.23
2019-03-23T22:55:58.961Z,19.43
2019-03-23T22:58:28.966Z,24.50
2019-03-23T23:00:59.071Z,13.97
2019-03-23T23:03:29.019Z,17.20
2019-03-23T23:05:59.064Z,21.63
2019-03-23T23:08:29.030Z,23.80
2019-03-23T23:10:59.022Z,30.53
2019-03-23T23:13:28.157Z,21.17
2019-03-23T23:15:58.127Z,14.37
2019-03-23T23:18:28.147Z,22.93
2019-03-23T23:20:58.106Z,22.40
2019-03-23T23:23:28.134Z,27.30
2019-03-23T23:25:58.117Z,22.93
2019-03-23T23:28:28.095Z,19.87
2019-03-23T23:30:58.092Z,26.07
2019-03-23T23:33:28.131Z,27.37
2019-03-23T23:35:58.176Z,25.63
2019-03-23T23:38:27.280Z,20.77
2019-03-23T23:40:57.235Z,33.27
2019-03-23T23:43:27.226Z,27.43
2019-03-23T23:45:57.240Z,23.43
2019-03-23T23:48:27.298Z,21.43
2019-03-23T23:50:56.425Z,26.63
2019-03-23T23:53:26.453Z,21.37
2019-03-23T23:55:56.542Z,22.80
2019-03-23T23:58:26.494Z,25.60
